createdAt,value
2023-03-04T00:00:09.932Z,82.42
2023-03-04T00:03:07.644Z,82.38
2023-03-04T00:05:48.737Z,82.68
2023-03-04T00:08:24.610Z,82.63
2023-03-04T00:11:15.908Z,82.58
2023-03-04T00:14:20.784Z,82.46
2023-03-04T00:17:19.667Z,82.64
2023-03-04T00:20:18.383Z,82.74
2023-03-04T00:22:54.601Z,82.82
2023-03-04T00:25:23.571Z,82.98
2023-03-04T00:27:56.491Z,82.61
2023-03-04T00:31:11.048Z,82.91
2023-03-04T00:34:49.457Z,82.99
2023-03-04T00:41:56.479Z,82.80
2023-03-04T00:45:29.205Z,83.14
2023-03-04T00:48:27.738Z,83.22
2023-03-04T00:51:24.295Z,82.81
2023-03-04T00:53:55.626Z,83.18
2023-03-04T00:56:57.305Z,82.91
2023-03-04T01:00:17.444Z,82.84
2023-03-04T01:03:21.832Z,83.06
2023-03-04T01:07:33.894Z,83.02
2023-03-04T01:09:58.517Z,83.06
2023-03-04T01:13:18.233Z,82.99
2023-03-04T01:16:30.509Z,82.65
2023-03-04T01:23:23.568Z,82.95
2023-03-04T01:26:12.918Z,82.91
2023-03-04T01:31:45.590Z,82.78
2023-03-04T01:34:13.217Z,82.90
2023-03-04T01:36:43.249Z,82.80
2023-03-04T01:39:11.743Z,83.00
2023-03-04T01:41:38.761Z,82.77
2023-03-04T01:44:06.367Z,82.64
2023-03-04T01:46:33.285Z,82.57
2023-03-04T01:49:00.301Z,82.89
2023-03-04T01:51:27.199Z,82.77
2023-03-04T01:54:00.538Z,82.88
2023-03-04T01:56:35.736Z,82.99
2023-03-04T01:59:07.171Z,82.97
2023-03-04T02:01:43.444Z,83.14
2023-03-04T02:04:30.169Z,82.92
2023-03-04T02:07:17.460Z,83.30
2023-03-04T02:09:44.502Z,83.04
2023-03-04T02:12:21.837Z,83.06
2023-03-04T02:14:59.378Z,83.13
2023-03-04T02:17:33.743Z,83.17
2023-03-04T02:20:28.111Z,83.29
2023-03-04T02:26:10.422Z,83.23
2023-03-04T02:28:48.077Z,83.36
2023-03-04T02:31:26.687Z,83.21
2023-03-04T02:34:01.345Z,83.38
2023-03-04T02:36:33.132Z,83.51
2023-03-04T02:39:22.156Z,83.60
2023-03-04T02:41:56.170Z,83.54
2023-03-04T02:44:26.803Z,83.62
2023-03-04T02:46:58.235Z,83.75
2023-03-04T02:49:38.709Z,83.77
2023-03-04T02:52:21.993Z,83.66
2023-03-04T02:54:48.969Z,83.67
2023-03-04T02:57:46.646Z,83.66
2023-03-04T03:00:48.355Z,83.68
2023-03-04T03:03:16.259Z,83.59
2023-03-04T03:05:43.138Z,83.88
2023-03-04T03:08:10.683Z,83.76
2023-03-04T03:10:52.872Z,83.67
2023-03-04T03:13:22.771Z,83.96
2023-03-04T03:15:53.475Z,84.22
2023-03-04T03:18:25.983Z,83.97
2023-03-04T03:20:52.855Z,84.15
2023-03-04T03:23:21.087Z,84.02
2023-03-04T03:25:48.047Z,84.15
2023-03-04T03:28:14.899Z,84.00
2023-03-04T03:30:47.408Z,84.17
2023-03-04T03:33:17.054Z,84.12
2023-03-04T03:35:44.016Z,84.05
2023-03-04T03:38:11.837Z,84.20
2023-03-04T03:40:39.028Z,84.22
2023-03-04T03:43:08.850Z,84.26
2023-03-04T03:45:35.773Z,84.12
2023-03-04T03:48:07.024Z,84.25
2023-03-04T03:50:33.956Z,84.38
2023-03-04T03:53:03.923Z,84.40
2023-03-04T03:55:30.887Z,84.49
2023-03-04T03:57:57.688Z,84.50
2023-03-04T04:00:24.746Z,84.61
2023-03-04T04:03:01.069Z,84.39
2023-03-04T04:05:30.584Z,84.67
2023-03-04T04:07:57.530Z,84.71
2023-03-04T04:10:32.995Z,84.75
2023-03-04T04:13:02.286Z,84.65
2023-03-04T04:15:34.186Z,84.79
2023-03-04T04:18:03.518Z,84.61
2023-03-04T04:20:30.544Z,84.74
2023-03-04T04:23:03.106Z,84.85
2023-03-04T04:25:36.096Z,84.89
2023-03-04T04:28:04.148Z,84.76
2023-03-04T04:30:41.208Z,84.87
2023-03-04T04:33:12.213Z,84.96
2023-03-04T04:35:42.034Z,84.81
2023-03-04T04:38:22.067Z,84.88
2023-03-04T04:41:02.110Z,84.97
2023-03-04T04:43:37.365Z,84.94
2023-03-04T04:46:06.966Z,84.83
2023-03-04T04:48:40.769Z,85.12
2023-03-04T04:51:08.483Z,85.16
2023-03-04T04:53:54.358Z,84.96
2023-03-04T04:56:28.487Z,84.96
2023-03-04T04:59:00.480Z,84.87
2023-03-04T05:01:48.456Z,84.95
2023-03-04T05:04:15.943Z,84.79
2023-03-04T05:06:43.064Z,84.92
2023-03-04T05:09:09.887Z,84.92
2023-03-04T05:11:36.673Z,85.04
2023-03-04T05:14:04.570Z,84.99
2023-03-04T05:16:32.888Z,84.99
2023-03-04T05:19:02.880Z,84.82
2023-03-04T05:21:30.223Z,85.20
2023-03-04T05:23:57.044Z,84.81
2023-03-04T05:26:25.945Z,84.74
2023-03-04T05:28:58.444Z,84.99
2023-03-04T05:31:36.593Z,84.77
2023-03-04T05:34:05.958Z,85.10
2023-03-04T05:36:32.680Z,84.85
2023-03-04T05:38:59.360Z,84.96
2023-03-04T05:41:26.082Z,84.74
2023-03-04T05:43:53.160Z,84.87
2023-03-04T05:46:25.589Z,84.59
2023-03-04T05:48:53.380Z,84.72
2023-03-04T05:51:20.784Z,84.83
2023-03-04T05:53:48.021Z,84.39
2023-03-04T05:56:17.216Z,84.63
2023-03-04T05:58:45.013Z,84.83
2023-03-04T06:01:11.850Z,84.52
2023-03-04T06:03:41.413Z,84.92
2023-03-04T06:06:08.306Z,85.05
2023-03-04T06:08:35.304Z,84.82
2023-03-04T06:11:03.035Z,84.93
2023-03-04T06:13:30.023Z,85.18
2023-03-04T06:16:08.880Z,85.17
2023-03-04T06:18:35.881Z,85.24
2023-03-04T06:21:03.464Z,85.38
2023-03-04T06:23:30.674Z,85.50
2023-03-04T06:25:59.339Z,85.51
2023-03-04T06:28:26.543Z,85.84
2023-03-04T06:30:54.078Z,85.62
2023-03-04T06:33:20.911Z,85.97
2023-03-04T06:35:48.344Z,85.87
2023-03-04T06:38:15.464Z,85.92
2023-03-04T06:40:42.192Z,86.18
2023-03-04T06:43:09.012Z,86.31
2023-03-04T06:45:35.853Z,86.42
2023-03-04T06:48:02.707Z,86.46
2023-03-04T06:50:29.485Z,86.58
2023-03-04T06:52:57.727Z,86.54
2023-03-04T06:55:24.896Z,87.00
2023-03-04T06:57:51.745Z,86.88
2023-03-04T07:00:19.573Z,86.98
2023-03-04T07:02:46.418Z,87.11
2023-03-04T07:05:18.729Z,87.07
2023-03-04T07:08:19.246Z,87.07
2023-03-04T07:11:00.639Z,87.28
2023-03-04T07:13:38.355Z,87.40
2023-03-04T07:16:07.077Z,87.37
2023-03-04T07:18:33.953Z,87.66
2023-03-04T07:21:17.704Z,87.36
2023-03-04T07:23:44.602Z,87.66
2023-03-04T07:26:11.751Z,87.85
2023-03-04T07:28:38.585Z,87.53
2023-03-04T07:31:28.503Z,87.74
2023-03-04T07:34:01.193Z,87.70
2023-03-04T07:36:30.897Z,87.70
2023-03-04T07:38:57.801Z,87.69
2023-03-04T07:41:28.524Z,87.59
2023-03-04T07:43:56.951Z,87.84
2023-03-04T07:46:23.831Z,87.75
2023-03-04T07:48:50.655Z,87.87
2023-03-04T07:51:20.159Z,87.83
2023-03-04T07:53:48.984Z,87.88
2023-03-04T07:56:20.341Z,87.75
2023-03-04T07:58:47.581Z,88.02
2023-03-04T08:01:22.953Z,87.86
2023-03-04T08:03:50.253Z,87.84
2023-03-04T08:06:19.488Z,87.82
2023-03-04T08:08:47.084Z,88.06
2023-03-04T08:11:16.358Z,87.78
2023-03-04T08:13:43.190Z,87.98
2023-03-04T08:16:13.108Z,87.77
2023-03-04T08:18:40.662Z,87.96
2023-03-04T08:21:13.055Z,87.90
2023-03-04T08:23:42.530Z,87.71
2023-03-04T08:26:12.550Z,87.81
2023-03-04T08:28:39.837Z,87.61
2023-03-04T08:31:07.110Z,87.31
2023-03-04T08:33:34.186Z,87.16
2023-03-04T08:36:01.152Z,87.30
2023-03-04T08:38:27.903Z,86.97
2023-03-04T08:40:56.297Z,86.59
2023-03-04T08:43:24.429Z,86.64
2023-03-04T08:45:52.872Z,86.27
2023-03-04T08:48:20.011Z,85.71
2023-03-04T08:50:47.706Z,84.94
2023-03-04T08:53:15.038Z,84.47
2023-03-04T08:55:42.375Z,83.93
2023-03-04T08:58:10.418Z,83.50
2023-03-04T09:00:39.377Z,82.96
2023-03-04T09:03:06.601Z,82.67
2023-03-04T09:05:33.305Z,82.98
2023-03-04T09:07:59.989Z,82.85
2023-03-04T09:10:26.810Z,82.91
2023-03-04T09:12:53.636Z,83.13
2023-03-04T09:15:22.906Z,82.93
2023-03-04T09:17:49.804Z,83.18
2023-03-04T09:20:16.780Z,83.18
2023-03-04T09:22:46.165Z,83.59
2023-03-04T09:25:15.826Z,83.57
2023-03-04T09:27:56.008Z,83.35
2023-03-04T09:30:23.036Z,83.07
2023-03-04T09:32:49.919Z,83.11
2023-03-04T09:35:16.842Z,83.04
2023-03-04T09:37:53.968Z,83.06
2023-03-04T09:40:33.064Z,82.64
2023-03-04T09:43:05.526Z,82.39
2023-03-04T09:45:42.538Z,82.21
2023-03-04T09:48:13.757Z,81.96
2023-03-04T09:51:07.693Z,81.47
2023-03-04T09:54:05.442Z,81.10
2023-03-04T09:56:35.597Z,80.63
2023-03-04T09:59:34.536Z,80.21
2023-03-04T10:02:16.948Z,79.53
2023-03-04T10:05:03.701Z,79.13
2023-03-04T10:07:35.740Z,78.57
2023-03-04T10:10:24.149Z,77.55
2023-03-04T10:12:52.298Z,76.00
2023-03-04T10:15:35.543Z,74.96
2023-03-04T10:18:24.434Z,73.77
2023-03-04T10:21:10.130Z,72.70
2023-03-04T10:23:37.764Z,71.96
2023-03-04T10:26:14.655Z,71.92
2023-03-04T10:28:42.141Z,70.93
2023-03-04T10:31:08.907Z,70.87
2023-03-04T10:33:38.521Z,70.23
2023-03-04T10:36:06.002Z,69.83
2023-03-04T10:38:35.883Z,69.71
2023-03-04T10:41:12.816Z,69.24
2023-03-04T10:43:39.577Z,68.32
2023-03-04T10:46:06.390Z,68.41
2023-03-04T10:48:33.204Z,67.45
2023-03-04T10:51:12.372Z,67.40
2023-03-04T10:53:41.228Z,67.43
2023-03-04T10:56:34.382Z,67.19
2023-03-04T10:59:33.743Z,67.05
2023-03-04T11:02:02.256Z,66.87
2023-03-04T11:04:34.103Z,66.85
2023-03-04T11:07:00.840Z,66.51
2023-03-04T11:09:29.991Z,66.57
2023-03-04T11:12:00.505Z,65.91
2023-03-04T11:14:49.279Z,65.66
2023-03-04T11:17:26.733Z,65.84
2023-03-04T11:20:13.214Z,65.86
2023-03-04T11:22:40.064Z,65.95
2023-03-04T11:25:11.564Z,65.90
2023-03-04T11:27:49.751Z,66.07
2023-03-04T11:30:39.973Z,65.82
2023-03-04T11:33:13.277Z,65.62
2023-03-04T11:36:13.879Z,65.23
2023-03-04T11:38:44.402Z,64.87
2023-03-04T11:41:32.311Z,64.93
2023-03-04T11:44:00.181Z,64.65
2023-03-04T11:46:52.744Z,64.40
2023-03-04T11:49:45.916Z,64.13
2023-03-04T11:52:35.365Z,63.66
2023-03-04T11:55:18.892Z,63.83
2023-03-04T11:57:56.712Z,64.25
2023-03-04T12:00:44.074Z,63.92
2023-03-04T12:03:48.479Z,63.91
2023-03-04T12:06:36.064Z,64.31
2023-03-04T12:09:21.472Z,64.20
2023-03-04T12:11:59.253Z,64.62
2023-03-04T12:14:31.395Z,64.82
2023-03-04T12:17:11.318Z,65.21
2023-03-04T12:20:02.471Z,65.03
2023-03-04T12:22:45.770Z,65.29
2023-03-04T12:25:48.514Z,64.56
2023-03-04T12:28:46.005Z,64.27
2023-03-04T12:31:37.322Z,63.62
2023-03-04T12:34:33.368Z,62.73
2023-03-04T12:37:11.481Z,61.96
2023-03-04T12:39:49.814Z,62.42
2023-03-04T12:42:41.430Z,62.42
2023-03-04T12:45:25.750Z,62.76
2023-03-04T12:48:20.206Z,62.56
2023-03-04T12:51:02.267Z,62.96
2023-03-04T12:53:47.134Z,62.86
2023-03-04T12:56:23.584Z,63.15
2023-03-04T12:58:51.004Z,63.32
2023-03-04T13:01:37.490Z,63.63
2023-03-04T13:04:24.285Z,63.76
2023-03-04T13:06:57.198Z,64.06
2023-03-04T13:09:32.640Z,64.32
2023-03-04T13:12:25.713Z,64.40
2023-03-04T13:15:07.805Z,64.36
2023-03-04T13:17:46.225Z,64.63
2023-03-04T13:20:31.220Z,64.60
2023-03-04T13:23:01.569Z,64.61
2023-03-04T13:25:43.007Z,64.24
2023-03-04T13:28:09.694Z,64.63
2023-03-04T13:30:38.094Z,64.54
2023-03-04T13:33:10.922Z,64.53
2023-03-04T13:35:50.187Z,64.11
2023-03-04T13:38:37.395Z,64.26
2023-03-04T13:41:16.238Z,63.96
2023-03-04T13:43:46.353Z,64.00
2023-03-04T13:46:19.453Z,64.23
2023-03-04T13:48:55.181Z,63.71
2023-03-04T13:51:44.077Z,63.63
2023-03-04T13:54:19.873Z,63.80
2023-03-04T13:56:47.980Z,63.83
2023-03-04T13:59:53.789Z,63.65
2023-03-04T14:02:26.192Z,63.53
2023-03-04T14:05:00.878Z,63.71
2023-03-04T14:07:36.851Z,63.75
2023-03-04T14:10:24.757Z,63.99
2023-03-04T14:12:58.368Z,64.16
2023-03-04T14:15:29.948Z,64.18
2023-03-04T14:17:58.674Z,64.20
2023-03-04T14:20:30.902Z,64.32
2023-03-04T14:22:58.804Z,64.04
2023-03-04T14:25:26.886Z,64.10
2023-03-04T14:28:25.928Z,64.06
2023-03-04T14:30:55.024Z,63.80
2023-03-04T14:33:29.430Z,63.81
2023-03-04T14:36:01.175Z,63.73
2023-03-04T14:38:34.325Z,63.66
2023-03-04T14:41:08.101Z,63.57
2023-03-04T14:44:13.592Z,63.69
2023-03-04T14:46:49.320Z,63.68
2023-03-04T14:49:24.104Z,63.52
2023-03-04T14:51:53.261Z,63.25
2023-03-04T14:54:41.211Z,63.30
2023-03-04T14:57:34.399Z,63.18
2023-03-04T15:00:22.441Z,63.11
2023-03-04T15:02:55.287Z,62.93
2023-03-04T15:05:28.046Z,63.17
2023-03-04T15:08:00.681Z,62.72
2023-03-04T15:10:38.110Z,63.09
2023-03-04T15:13:07.555Z,62.59
2023-03-04T15:15:45.392Z,62.77
2023-03-04T15:18:26.533Z,62.58
2023-03-04T15:21:01.936Z,62.61
2023-03-04T15:23:30.374Z,62.66
2023-03-04T15:25:59.601Z,62.56
2023-03-04T15:28:27.328Z,62.63
2023-03-04T15:30:54.552Z,62.71
2023-03-04T15:33:21.498Z,62.64
2023-03-04T15:35:55.782Z,62.93
2023-03-04T15:38:24.101Z,62.81
2023-03-04T15:40:54.743Z,62.87
2023-03-04T15:43:22.773Z,63.24
2023-03-04T15:45:51.793Z,63.13
2023-03-04T15:48:20.422Z,63.32
2023-03-04T15:50:57.570Z,63.15
2023-03-04T15:53:33.215Z,63.41
2023-03-04T15:56:00.909Z,63.40
2023-03-04T15:58:29.444Z,63.12
2023-03-04T16:00:57.394Z,63.39
2023-03-04T16:03:24.959Z,63.40
2023-03-04T16:05:52.945Z,63.76
2023-03-04T16:08:22.153Z,63.53
2023-03-04T16:10:51.071Z,63.91
2023-03-04T16:13:21.991Z,64.08
2023-03-04T16:15:49.684Z,64.23
2023-03-04T16:18:19.648Z,64.61
2023-03-04T16:20:49.131Z,64.54
2023-03-04T16:23:23.174Z,64.68
2023-03-04T16:25:54.207Z,64.75
2023-03-04T16:28:21.491Z,64.95
2023-03-04T16:30:49.506Z,65.08
2023-03-04T16:33:16.570Z,65.29
2023-03-04T16:35:45.299Z,65.43
2023-03-04T16:38:28.558Z,65.42
2023-03-04T16:40:56.452Z,65.49
2023-03-04T16:43:24.498Z,65.49
2023-03-04T16:45:51.731Z,65.38
2023-03-04T16:48:20.688Z,65.49
2023-03-04T16:50:48.370Z,65.52
2023-03-04T16:53:49.018Z,65.80
2023-03-04T16:56:18.750Z,65.58
2023-03-04T16:58:47.209Z,65.58
2023-03-04T17:01:34.240Z,65.62
2023-03-04T17:04:01.411Z,65.81
2023-03-04T17:06:29.024Z,65.83
2023-03-04T17:08:58.606Z,65.87
2023-03-04T17:11:28.489Z,66.18
2023-03-04T17:13:55.829Z,66.09
2023-03-04T17:16:23.517Z,66.33
2023-03-04T17:18:51.684Z,66.04
2023-03-04T17:21:24.808Z,65.92
2023-03-04T17:23:52.549Z,66.26
2023-03-04T17:26:23.271Z,66.47
2023-03-04T17:28:53.140Z,66.25
2023-03-04T17:31:21.892Z,66.24
2023-03-04T17:33:49.715Z,66.25
2023-03-04T17:36:19.251Z,66.54
2023-03-04T17:38:46.842Z,66.39
2023-03-04T17:41:17.501Z,66.23
2023-03-04T17:43:51.818Z,66.59
2023-03-04T17:46:21.565Z,66.64
2023-03-04T17:48:48.954Z,67.23
2023-03-04T17:51:15.689Z,67.84
2023-03-04T17:53:42.514Z,68.43
2023-03-04T17:56:11.335Z,68.82
2023-03-04T17:58:38.215Z,69.07
2023-03-04T18:01:10.144Z,69.33
2023-03-04T18:03:36.954Z,69.96
2023-03-04T18:06:03.872Z,70.27
2023-03-04T18:08:30.653Z,70.64
2023-03-04T18:10:57.700Z,71.04
2023-03-04T18:13:24.490Z,71.44
2023-03-04T18:15:51.362Z,71.92
2023-03-04T18:18:18.130Z,72.21
2023-03-04T18:20:44.949Z,72.72
2023-03-04T18:23:11.656Z,72.99
2023-03-04T18:25:39.274Z,73.21
2023-03-04T18:28:06.334Z,73.63
2023-03-04T18:30:33.134Z,73.93
2023-03-04T18:33:00.182Z,73.97
2023-03-04T18:35:27.102Z,74.11
2023-03-04T18:37:53.881Z,74.37
2023-03-04T18:40:21.232Z,74.43
2023-03-04T18:42:48.272Z,74.51
2023-03-04T18:45:15.792Z,74.54
2023-03-04T18:47:44.980Z,74.78
2023-03-04T18:50:12.856Z,74.54
2023-03-04T18:52:39.599Z,74.72
2023-03-04T18:55:06.631Z,74.61
2023-03-04T18:57:33.602Z,74.41
2023-03-04T19:00:03.213Z,74.39
2023-03-04T19:02:41.569Z,74.36
2023-03-04T19:05:13.266Z,74.44
2023-03-04T19:07:40.054Z,74.27
2023-03-04T19:10:07.496Z,74.04
2023-03-04T19:12:34.412Z,73.73
2023-03-04T19:15:01.585Z,73.45
2023-03-04T19:17:32.349Z,73.36
2023-03-04T19:19:59.819Z,73.63
2023-03-04T19:22:26.546Z,73.69
2023-03-04T19:24:55.703Z,73.72
2023-03-04T19:27:22.354Z,73.29
2023-03-04T19:29:49.214Z,73.11
2023-03-04T19:32:19.411Z,73.29
2023-03-04T19:34:46.981Z,73.02
2023-03-04T19:37:14.530Z,72.99
2023-03-04T19:39:43.668Z,72.47
2023-03-04T19:42:11.938Z,72.63
2023-03-04T19:44:39.147Z,72.32
2023-03-04T19:47:06.352Z,72.46
2023-03-04T19:49:34.169Z,72.36
2023-03-04T19:52:01.482Z,72.13
2023-03-04T19:54:31.381Z,72.51
2023-03-04T19:56:58.692Z,72.33
2023-03-04T19:59:25.548Z,72.26
2023-03-04T20:01:52.533Z,72.37
2023-03-04T20:04:21.173Z,72.40
2023-03-04T20:06:50.080Z,72.31
2023-03-04T20:09:18.514Z,72.48
2023-03-04T20:12:02.528Z,72.44
2023-03-04T20:14:31.567Z,72.14
2023-03-04T20:17:02.886Z,72.58
2023-03-04T20:19:30.774Z,72.35
2023-03-04T20:21:58.052Z,72.18
2023-03-04T20:24:26.146Z,72.16
2023-03-04T20:26:53.546Z,72.24
2023-03-04T20:29:20.434Z,72.27
2023-03-04T20:31:47.319Z,72.25
2023-03-04T20:34:14.925Z,72.32
2023-03-04T20:36:41.772Z,71.97
2023-03-04T20:39:27.062Z,71.51
2023-03-04T20:41:56.506Z,71.63
2023-03-04T20:44:23.360Z,71.58
2023-03-04T20:46:50.188Z,71.40
2023-03-04T20:49:24.050Z,71.22
2023-03-04T20:51:52.523Z,71.39
2023-03-04T20:54:19.355Z,71.49
2023-03-04T20:56:47.092Z,71.17
2023-03-04T20:59:14.165Z,71.37
2023-03-04T21:01:42.437Z,71.23
2023-03-04T21:04:09.535Z,71.05
2023-03-04T21:06:38.767Z,70.62
2023-03-04T21:09:08.857Z,70.49
2023-03-04T21:11:42.221Z,70.42
2023-03-04T21:14:30.791Z,70.39
2023-03-04T21:17:00.331Z,70.16
2023-03-04T21:19:34.383Z,69.79
2023-03-04T21:22:01.521Z,69.38
2023-03-04T21:24:31.021Z,69.06
2023-03-04T21:26:58.398Z,68.81
2023-03-04T21:29:28.555Z,68.65
2023-03-04T21:32:16.854Z,68.48
2023-03-04T21:34:52.445Z,68.08
2023-03-04T21:37:24.145Z,68.01
2023-03-04T21:39:51.297Z,68.01
2023-03-04T21:42:18.958Z,67.52
2023-03-04T21:44:49.696Z,67.62
2023-03-04T21:47:17.874Z,67.80
2023-03-04T21:49:51.074Z,68.11
2023-03-04T21:52:19.127Z,68.17
2023-03-04T21:54:46.142Z,68.11
2023-03-04T21:57:14.341Z,68.02
2023-03-04T21:59:41.319Z,68.09
2023-03-04T22:02:14.960Z,68.43
2023-03-04T22:04:43.171Z,68.10
2023-03-04T22:07:10.059Z,67.95
2023-03-04T22:09:36.833Z,68.12
2023-03-04T22:12:03.898Z,68.25
2023-03-04T22:14:35.129Z,68.46
2023-03-04T22:17:02.181Z,68.29
2023-03-04T22:19:31.746Z,68.42
2023-03-04T22:21:59.443Z,68.24
2023-03-04T22:24:26.492Z,68.33
2023-03-04T22:26:53.702Z,68.30
2023-03-04T22:29:20.503Z,68.11
2023-03-04T22:31:47.899Z,68.32
2023-03-04T22:34:15.724Z,68.13
2023-03-04T22:36:44.688Z,68.19
2023-03-04T22:39:14.441Z,68.06
2023-03-04T22:41:41.907Z,68.16
2023-03-04T22:44:08.657Z,67.93
2023-03-04T22:46:38.160Z,67.76
2023-03-04T22:49:11.677Z,67.88
2023-03-04T22:51:41.568Z,67.63
2023-03-04T22:54:10.269Z,67.56
2023-03-04T22:56:37.086Z,67.43
2023-03-04T22:59:03.813Z,67.36
2023-03-04T23:01:31.530Z,67.04
2023-03-04T23:03:58.276Z,66.74
2023-03-04T23:06:27.898Z,67.01
2023-03-04T23:08:54.973Z,66.75
2023-03-04T23:11:26.498Z,66.76
2023-03-04T23:13:54.493Z,66.71
2023-03-04T23:16:22.419Z,66.55
2023-03-04T23:18:49.893Z,66.59
2023-03-04T23:21:22.710Z,66.76
2023-03-04T23:23:50.522Z,66.78
2023-03-04T23:26:23.511Z,67.12
2023-03-04T23:28:50.873Z,67.33
2023-03-04T23:31:19.065Z,67.69
2023-03-04T23:33:47.903Z,68.05
2023-03-04T23:36:17.341Z,68.40
2023-03-04T23:38:45.633Z,68.72
2023-03-04T23:41:18.924Z,69.11
2023-03-04T23:43:46.709Z,69.22
2023-03-04T23:46:13.982Z,69.30
2023-03-04T23:48:43.365Z,69.38
2023-03-04T23:51:10.398Z,69.16
2023-03-04T23:53:39.188Z,69.26
2023-03-04T23:56:14.706Z,69.33
2023-03-04T23:58:42.784Z,69.22
